createdAt,value
2023-04-18T00:09:02.804Z,88.69
2023-04-18T00:19:02.449Z,87.45
2023-04-18T00:29:03.745Z,86.26
2023-04-18T00:39:04.619Z,85.99
2023-04-18T00:49:05.792Z,86.06
2023-04-18T00:59:07.000Z,85.95
2023-04-18T01:09:07.852Z,85.88
2023-04-18T01:19:09.108Z,85.40
2023-04-18T01:29:10.036Z,85.23
2023-04-18T01:39:11.120Z,87.31
2023-04-18T01:49:12.199Z,87.09
2023-04-18T01:59:13.283Z,86.64
2023-04-18T02:09:14.281Z,85.58
2023-04-18T02:19:15.338Z,85.09
2023-04-18T02:29:16.390Z,84.65
2023-04-18T02:49:18.525Z,83.50
2023-04-18T02:59:19.508Z,83.10
2023-04-18T03:09:20.770Z,83.08
2023-04-18T03:19:21.593Z,82.49
2023-04-18T03:29:23.791Z,83.19
2023-04-18T03:39:23.749Z,83.68
2023-04-18T03:49:24.969Z,84.05
2023-04-18T03:59:25.848Z,84.96
2023-04-18T04:09:26.809Z,84.50
2023-04-18T04:19:27.865Z,84.26
2023-04-18T04:29:28.969Z,84.69
2023-04-18T04:39:30.000Z,83.69
2023-04-18T04:49:31.041Z,82.91
2023-04-18T04:59:32.083Z,82.60
2023-04-18T05:09:33.333Z,82.33
2023-04-18T05:19:34.206Z,82.23
2023-04-18T05:29:35.443Z,81.44
2023-04-18T05:39:36.858Z,81.33
2023-04-18T05:49:37.479Z,80.85
2023-04-18T05:59:38.555Z,81.28
2023-04-18T06:09:39.895Z,80.82
2023-04-18T06:19:42.166Z,79.96
2023-04-18T06:29:42.895Z,79.79
2023-04-18T06:39:42.951Z,78.74
2023-04-18T06:49:44.099Z,78.28
2023-04-18T06:59:45.286Z,77.80
2023-04-18T07:09:46.284Z,77.86
2023-04-18T07:19:48.758Z,76.34
2023-04-18T07:29:49.265Z,77.48
2023-04-18T07:39:49.759Z,76.23
2023-04-18T07:59:52.110Z,75.35
2023-04-18T08:19:54.576Z,68.40
2023-04-18T08:29:55.762Z,66.68
2023-04-18T08:39:56.902Z,66.70
2023-04-18T08:49:58.141Z,68.51
2023-04-18T08:59:59.409Z,68.26
2023-04-18T09:10:00.705Z,66.88
2023-04-18T09:20:02.042Z,65.09
2023-04-18T09:30:03.582Z,63.31
2023-04-18T09:40:05.060Z,58.10
2023-04-18T09:50:06.243Z,55.38
2023-04-18T10:00:07.245Z,52.06
2023-04-18T10:10:08.588Z,52.33
2023-04-18T10:20:10.229Z,53.46
2023-04-18T10:30:11.400Z,51.30
2023-04-18T10:40:12.740Z,49.57
2023-04-18T10:50:14.349Z,49.32
2023-04-18T11:00:15.700Z,48.51
2023-04-18T11:10:17.216Z,49.49
2023-04-18T11:20:18.792Z,49.60
2023-04-18T11:30:20.203Z,48.40
2023-04-18T11:40:21.702Z,48.60
2023-04-18T11:50:23.437Z,48.41
2023-04-18T12:00:24.948Z,48.41
2023-04-18T12:10:26.668Z,46.75
2023-04-18T12:20:27.950Z,40.46
2023-04-18T12:40:30.610Z,40.83
2023-04-18T12:50:32.416Z,40.66
2023-04-18T13:00:33.562Z,39.62
2023-04-18T13:30:37.915Z,38.05
2023-04-18T13:40:39.310Z,37.26
2023-04-18T13:50:40.734Z,36.35
2023-04-18T14:00:42.418Z,34.31
2023-04-18T14:10:43.605Z,33.12
2023-04-18T14:20:45.127Z,31.52
2023-04-18T14:30:46.653Z,31.63
2023-04-18T14:40:47.762Z,31.72
2023-04-18T14:50:49.170Z,33.43
2023-04-18T15:00:51.769Z,33.62
2023-04-18T15:10:52.023Z,34.24
2023-04-18T15:20:53.174Z,34.17
2023-04-18T15:30:54.740Z,33.36
2023-04-18T15:40:55.786Z,34.97
2023-04-18T15:50:57.157Z,35.42
2023-04-18T16:00:58.533Z,35.43
2023-04-18T16:10:59.862Z,35.62
2023-04-18T16:21:01.296Z,35.58
2023-04-18T16:31:02.887Z,35.58
2023-04-18T16:41:04.354Z,36.49
2023-04-18T16:51:05.532Z,37.26
2023-04-18T17:01:06.748Z,36.89
2023-04-18T17:11:08.861Z,37.38
2023-04-18T17:21:09.472Z,37.86
2023-04-18T17:31:10.899Z,38.63
2023-04-18T17:41:12.254Z,38.62
2023-04-18T17:51:13.446Z,40.09
2023-04-18T18:01:14.693Z,41.36
2023-04-18T18:11:15.942Z,42.88
2023-04-18T18:21:17.278Z,44.43
2023-04-18T18:31:18.531Z,46.34
2023-04-18T18:41:19.650Z,45.93
2023-04-18T18:51:20.875Z,44.04
2023-04-18T19:01:22.333Z,43.68
2023-04-18T19:11:23.502Z,43.75
2023-04-18T19:21:24.797Z,44.26
2023-04-18T19:31:25.974Z,42.76
2023-04-18T19:41:27.155Z,42.71
2023-04-18T19:51:28.732Z,43.26
2023-04-18T20:01:29.607Z,43.40
2023-04-18T20:11:30.747Z,43.88
2023-04-18T20:21:33.468Z,44.06
2023-04-18T20:31:33.263Z,45.11
2023-04-18T20:41:34.510Z,46.76
2023-04-18T20:51:35.592Z,46.97
2023-04-18T21:01:37.244Z,46.70
2023-04-18T21:11:37.818Z,47.02
2023-04-18T21:21:39.173Z,47.58
2023-04-18T21:31:40.169Z,47.62
2023-04-18T21:41:41.588Z,48.01
2023-04-18T22:01:43.558Z,48.07
2023-04-18T22:11:44.672Z,47.95
2023-04-18T22:31:46.940Z,47.46
2023-04-18T22:51:48.965Z,47.72
2023-04-18T23:01:50.088Z,49.06
2023-04-18T23:11:51.171Z,49.95
2023-04-18T23:21:52.294Z,49.53
2023-04-18T23:31:53.487Z,49.74
2023-04-18T23:51:55.682Z,51.32
